sensor_id;sensor_type;location;lat;lon;timestamp;P1;durP1;ratioP1;P2;durP2;ratioP2
27979;SDS011;15315;50.836;4.430;2023-07-09T00:05:13;10.07;;;5.20;;
27979;SDS011;15315;50.836;4.430;2023-07-09T00:15:15;12.15;;;5.43;;
27979;SDS011;15315;50.836;4.430;2023-07-09T00:25:16;12.48;;;5.82;;
27979;SDS011;15315;50.836;4.430;2023-07-09T00:35:16;7.40;;;5.35;;
27979;SDS011;15315;50.836;4.430;2023-07-09T00:45:18;14.82;;;5.53;;
27979;SDS011;15315;50.836;4.430;2023-07-09T00:55:25;8.82;;;4.93;;
27979;SDS011;15315;50.836;4.430;2023-07-09T01:05:32;8.75;;;5.28;;
27979;SDS011;15315;50.836;4.430;2023-07-09T01:15:33;14.48;;;9.82;;
27979;SDS011;15315;50.836;4.430;2023-07-09T01:25:34;20.50;;;9.80;;
27979;SDS011;15315;50.836;4.430;2023-07-09T01:35:39;12.45;;;7.72;;
27979;SDS011;15315;50.836;4.430;2023-07-09T01:45:42;11.65;;;7.57;;
27979;SDS011;15315;50.836;4.430;2023-07-09T01:55:43;10.75;;;6.38;;
27979;SDS011;15315;50.836;4.430;2023-07-09T02:05:44;9.20;;;5.88;;
27979;SDS011;15315;50.836;4.430;2023-07-09T02:15:44;12.23;;;6.22;;
27979;SDS011;15315;50.836;4.430;2023-07-09T02:25:45;8.93;;;5.53;;
27979;SDS011;15315;50.836;4.430;2023-07-09T02:35:45;10.55;;;5.97;;
27979;SDS011;15315;50.836;4.430;2023-07-09T02:45:45;10.50;;;5.68;;
27979;SDS011;15315;50.836;4.430;2023-07-09T02:55:46;10.60;;;6.22;;
27979;SDS011;15315;50.836;4.430;2023-07-09T03:05:46;13.93;;;6.05;;
27979;SDS011;15315;50.836;4.430;2023-07-09T03:15:54;9.05;;;5.35;;
27979;SDS011;15315;50.836;4.430;2023-07-09T03:25:58;11.20;;;5.45;;
27979;SDS011;15315;50.836;4.430;2023-07-09T03:36:00;10.20;;;5.25;;
27979;SDS011;15315;50.836;4.430;2023-07-09T03:46:00;13.23;;;5.73;;
27979;SDS011;15315;50.836;4.430;2023-07-09T03:56:01;11.93;;;5.80;;
27979;SDS011;15315;50.836;4.430;2023-07-09T04:06:01;10.43;;;5.20;;
27979;SDS011;15315;50.836;4.430;2023-07-09T04:16:01;9.45;;;5.78;;
27979;SDS011;15315;50.836;4.430;2023-07-09T04:26:02;13.27;;;5.60;;
27979;SDS011;15315;50.836;4.430;2023-07-09T04:36:03;12.15;;;4.95;;
27979;SDS011;15315;50.836;4.430;2023-07-09T04:46:07;11.57;;;5.80;;
27979;SDS011;15315;50.836;4.430;2023-07-09T04:56:07;10.32;;;5.85;;
27979;SDS011;15315;50.836;4.430;2023-07-09T05:06:09;12.10;;;5.40;;
27979;SDS011;15315;50.836;4.430;2023-07-09T05:16:09;9.65;;;5.75;;
27979;SDS011;15315;50.836;4.430;2023-07-09T05:26:10;9.68;;;6.03;;
27979;SDS011;15315;50.836;4.430;2023-07-09T05:36:11;10.57;;;5.82;;
27979;SDS011;15315;50.836;4.430;2023-07-09T05:46:15;10.25;;;5.82;;
27979;SDS011;15315;50.836;4.430;2023-07-09T05:56:16;13.45;;;5.50;;
27979;SDS011;15315;50.836;4.430;2023-07-09T06:06:16;18.02;;;5.28;;
27979;SDS011;15315;50.836;4.430;2023-07-09T06:16:17;10.73;;;5.13;;
27979;SDS011;15315;50.836;4.430;2023-07-09T06:26:17;9.75;;;5.70;;
27979;SDS011;15315;50.836;4.430;2023-07-09T06:36:19;13.43;;;5.55;;
27979;SDS011;15315;50.836;4.430;2023-07-09T06:46:19;15.70;;;6.60;;
27979;SDS011;15315;50.836;4.430;2023-07-09T06:56:20;15.53;;;7.40;;
27979;SDS011;15315;50.836;4.430;2023-07-09T07:06:22;11.68;;;5.43;;
27979;SDS011;15315;50.836;4.430;2023-07-09T07:16:22;15.35;;;8.50;;
27979;SDS011;15315;50.836;4.430;2023-07-09T07:26:22;16.25;;;8.52;;
27979;SDS011;15315;50.836;4.430;2023-07-09T07:36:23;24.15;;;12.38;;
27979;SDS011;15315;50.836;4.430;2023-07-09T07:46:23;26.88;;;16.23;;
27979;SDS011;15315;50.836;4.430;2023-07-09T07:56:23;24.80;;;15.57;;
27979;SDS011;15315;50.836;4.430;2023-07-09T08:06:25;26.33;;;16.92;;
27979;SDS011;15315;50.836;4.430;2023-07-09T08:16:26;38.75;;;23.30;;
27979;SDS011;15315;50.836;4.430;2023-07-09T08:26:26;37.37;;;22.63;;
27979;SDS011;15315;50.836;4.430;2023-07-09T08:36:27;43.83;;;25.75;;
27979;SDS011;15315;50.836;4.430;2023-07-09T08:46:37;38.92;;;24.58;;
27979;SDS011;15315;50.836;4.430;2023-07-09T08:56:50;36.03;;;23.37;;
27979;SDS011;15315;50.836;4.430;2023-07-09T09:06:57;37.30;;;24.48;;
27979;SDS011;15315;50.836;4.430;2023-07-09T09:17:14;37.95;;;21.90;;
27979;SDS011;15315;50.836;4.430;2023-07-09T09:27:18;32.83;;;21.83;;
27979;SDS011;15315;50.836;4.430;2023-07-09T09:37:36;28.38;;;19.60;;
27979;SDS011;15315;50.836;4.430;2023-07-09T09:47:37;31.00;;;20.25;;
27979;SDS011;15315;50.836;4.430;2023-07-09T09:57:37;29.30;;;19.92;;
27979;SDS011;15315;50.836;4.430;2023-07-09T10:07:39;32.30;;;19.08;;
27979;SDS011;15315;50.836;4.430;2023-07-09T10:48:16;22.02;;;16.00;;
27979;SDS011;15315;50.836;4.430;2023-07-09T10:58:37;21.77;;;14.00;;
27979;SDS011;15315;50.836;4.430;2023-07-09T11:08:43;19.15;;;14.80;;
27979;SDS011;15315;50.836;4.430;2023-07-09T11:18:55;19.92;;;12.27;;
27979;SDS011;15315;50.836;4.430;2023-07-09T11:39:02;10.30;;;6.70;;
27979;SDS011;15315;50.836;4.430;2023-07-09T11:49:02;9.57;;;5.70;;
27979;SDS011;15315;50.836;4.430;2023-07-09T11:59:04;11.07;;;5.97;;
27979;SDS011;15315;50.836;4.430;2023-07-09T12:09:05;8.98;;;5.00;;
27979;SDS011;15315;50.836;4.430;2023-07-09T12:19:05;10.82;;;5.68;;
27979;SDS011;15315;50.836;4.430;2023-07-09T12:29:07;41.33;;;11.57;;
27979;SDS011;15315;50.836;4.430;2023-07-09T12:39:10;15.35;;;9.75;;
27979;SDS011;15315;50.836;4.430;2023-07-09T12:49:37;53.97;;;13.53;;
27979;SDS011;15315;50.836;4.430;2023-07-09T12:59:39;24.05;;;11.80;;
27979;SDS011;15315;50.836;4.430;2023-07-09T13:09:47;16.13;;;11.63;;
27979;SDS011;15315;50.836;4.430;2023-07-09T13:19:48;19.60;;;12.57;;
27979;SDS011;15315;50.836;4.430;2023-07-09T13:29:49;17.05;;;10.15;;
27979;SDS011;15315;50.836;4.430;2023-07-09T13:39:51;12.95;;;8.75;;
27979;SDS011;15315;50.836;4.430;2023-07-09T13:49:51;17.92;;;9.90;;
27979;SDS011;15315;50.836;4.430;2023-07-09T13:59:51;13.68;;;8.52;;
27979;SDS011;15315;50.836;4.430;2023-07-09T14:09:52;16.23;;;8.30;;
27979;SDS011;15315;50.836;4.430;2023-07-09T14:19:52;14.85;;;7.85;;
27979;SDS011;15315;50.836;4.430;2023-07-09T14:29:54;10.60;;;6.53;;
27979;SDS011;15315;50.836;4.430;2023-07-09T14:39:54;11.73;;;7.20;;
27979;SDS011;15315;50.836;4.430;2023-07-09T14:49:55;14.10;;;8.02;;
27979;SDS011;15315;50.836;4.430;2023-07-09T14:59:56;15.73;;;7.03;;
27979;SDS011;15315;50.836;4.430;2023-07-09T15:10:00;12.82;;;6.20;;
27979;SDS011;15315;50.836;4.430;2023-07-09T15:20:00;10.90;;;6.65;;
27979;SDS011;15315;50.836;4.430;2023-07-09T15:30:01;9.77;;;6.60;;
27979;SDS011;15315;50.836;4.430;2023-07-09T15:40:05;8.75;;;5.57;;
27979;SDS011;15315;50.836;4.430;2023-07-09T15:50:23;8.02;;;5.32;;
27979;SDS011;15315;50.836;4.430;2023-07-09T16:00:27;11.13;;;6.47;;
27979;SDS011;15315;50.836;4.430;2023-07-09T16:10:28;8.15;;;5.43;;
27979;SDS011;15315;50.836;4.430;2023-07-09T16:20:30;10.00;;;5.87;;
27979;SDS011;15315;50.836;4.430;2023-07-09T16:30:30;10.95;;;4.88;;
27979;SDS011;15315;50.836;4.430;2023-07-09T16:40:32;14.25;;;7.32;;
27979;SDS011;15315;50.836;4.430;2023-07-09T16:50:33;14.98;;;9.20;;
27979;SDS011;15315;50.836;4.430;2023-07-09T17:00:34;21.42;;;10.85;;
27979;SDS011;15315;50.836;4.430;2023-07-09T17:10:36;25.60;;;16.30;;
27979;SDS011;15315;50.836;4.430;2023-07-09T17:20:39;20.55;;;10.05;;
27979;SDS011;15315;50.836;4.430;2023-07-09T17:30:40;15.82;;;8.73;;
27979;SDS011;15315;50.836;4.430;2023-07-09T17:40:40;13.07;;;7.05;;
27979;SDS011;15315;50.836;4.430;2023-07-09T17:50:41;10.77;;;5.47;;
27979;SDS011;15315;50.836;4.430;2023-07-09T18:00:41;34.53;;;22.53;;
27979;SDS011;15315;50.836;4.430;2023-07-09T18:10:42;14.73;;;3.83;;
27979;SDS011;15315;50.836;4.430;2023-07-09T18:20:44;12.25;;;8.05;;
27979;SDS011;15315;50.836;4.430;2023-07-09T18:30:44;6.30;;;3.15;;
27979;SDS011;15315;50.836;4.430;2023-07-09T18:40:45;10.32;;;4.80;;
27979;SDS011;15315;50.836;4.430;2023-07-09T18:50:46;11.53;;;3.43;;
27979;SDS011;15315;50.836;4.430;2023-07-09T19:00:47;6.78;;;2.80;;
27979;SDS011;15315;50.836;4.430;2023-07-09T19:10:48;5.78;;;2.53;;
27979;SDS011;15315;50.836;4.430;2023-07-09T19:20:48;10.70;;;2.75;;
27979;SDS011;15315;50.836;4.430;2023-07-09T19:30:49;12.25;;;4.13;;
27979;SDS011;15315;50.836;4.430;2023-07-09T19:50:53;14.02;;;6.50;;
27979;SDS011;15315;50.836;4.430;2023-07-09T20:00:53;9.38;;;3.17;;
27979;SDS011;15315;50.836;4.430;2023-07-09T20:10:57;8.40;;;3.40;;
27979;SDS011;15315;50.836;4.430;2023-07-09T20:21:00;9.83;;;2.70;;
27979;SDS011;15315;50.836;4.430;2023-07-09T20:31:19;11.68;;;3.75;;
27979;SDS011;15315;50.836;4.430;2023-07-09T20:41:22;8.25;;;3.15;;
27979;SDS011;15315;50.836;4.430;2023-07-09T20:51:22;9.55;;;2.80;;
27979;SDS011;15315;50.836;4.430;2023-07-09T21:01:23;8.43;;;3.17;;
27979;SDS011;15315;50.836;4.430;2023-07-09T21:11:23;10.60;;;3.20;;
27979;SDS011;15315;50.836;4.430;2023-07-09T21:21:23;8.00;;;3.03;;
27979;SDS011;15315;50.836;4.430;2023-07-09T21:31:24;12.93;;;3.95;;
27979;SDS011;15315;50.836;4.430;2023-07-09T21:41:24;8.25;;;3.25;;
27979;SDS011;15315;50.836;4.430;2023-07-09T21:51:25;6.13;;;2.90;;
27979;SDS011;15315;50.836;4.430;2023-07-09T22:01:25;10.40;;;3.03;;
27979;SDS011;15315;50.836;4.430;2023-07-09T22:11:26;6.85;;;2.42;;
27979;SDS011;15315;50.836;4.430;2023-07-09T22:21:28;10.10;;;2.40;;
27979;SDS011;15315;50.836;4.430;2023-07-09T22:31:30;6.65;;;2.45;;
27979;SDS011;15315;50.836;4.430;2023-07-09T22:41:32;4.15;;;2.05;;
27979;SDS011;15315;50.836;4.430;2023-07-09T22:51:33;8.73;;;2.97;;
27979;SDS011;15315;50.836;4.430;2023-07-09T23:01:35;7.93;;;2.35;;
27979;SDS011;15315;50.836;4.430;2023-07-09T23:11:37;5.68;;;2.28;;
27979;SDS011;15315;50.836;4.430;2023-07-09T23:21:40;8.80;;;3.40;;
27979;SDS011;15315;50.836;4.430;2023-07-09T23:31:43;12.25;;;2.88;;
27979;SDS011;15315;50.836;4.430;2023-07-09T23:41:46;10.25;;;2.83;;
27979;SDS011;15315;50.836;4.430;2023-07-09T23:51:51;6.90;;;2.47;;
